createdAt,value
2018-08-11T00:02:13.659Z,1.57
2018-08-11T00:04:41.332Z,1.43
2018-08-11T00:07:08.982Z,1.30
2018-08-11T00:09:36.639Z,1.43
2018-08-11T00:12:04.608Z,1.43
2018-08-11T00:14:32.274Z,2.70
2018-08-11T00:17:00.018Z,1.30
2018-08-11T00:19:27.777Z,1.65
2018-08-11T00:21:55.446Z,1.67
2018-08-11T00:24:23.040Z,1.17
2018-08-11T00:26:50.692Z,1.50
2018-08-11T00:29:18.351Z,1.80
2018-08-11T00:31:45.962Z,1.47
2018-08-11T00:34:13.631Z,1.30
2018-08-11T00:36:41.226Z,1.20
2018-08-11T00:39:10.632Z,1.47
2018-08-11T00:41:38.233Z,1.43
2018-08-11T00:44:06.602Z,1.27
2018-08-11T00:46:34.226Z,1.37
2018-08-11T00:49:01.896Z,1.97
2018-08-11T00:51:29.512Z,1.20
2018-08-11T00:53:57.095Z,1.13
2018-08-11T00:56:24.735Z,1.17
2018-08-11T00:58:52.969Z,1.10
2018-08-11T01:01:20.675Z,1.10
2018-08-11T01:03:48.309Z,1.60
2018-08-11T01:06:15.941Z,1.45
2018-08-11T01:08:43.573Z,1.13
2018-08-11T01:11:11.361Z,1.20
2018-08-11T01:13:39.370Z,1.20
2018-08-11T01:16:07.009Z,1.33
2018-08-11T01:18:34.663Z,1.10
2018-08-11T01:21:02.332Z,1.75
2018-08-11T01:23:29.977Z,1.40
2018-08-11T01:25:57.597Z,1.82
2018-08-11T01:28:25.245Z,1.70
2018-08-11T01:30:52.881Z,1.53
2018-08-11T01:33:20.537Z,2.00
2018-08-11T01:35:48.172Z,1.30
2018-08-11T01:38:15.794Z,1.60
2018-08-11T01:40:43.472Z,1.50
2018-08-11T01:43:11.381Z,2.17
2018-08-11T01:45:38.968Z,1.60
2018-08-11T01:48:07.256Z,1.00
2018-08-11T01:50:34.884Z,1.40
2018-08-11T01:53:02.471Z,1.10
2018-08-11T01:55:30.124Z,1.10
2018-08-11T01:57:57.702Z,1.22
2018-08-11T02:00:25.262Z,1.30
2018-08-11T02:02:52.905Z,1.30
2018-08-11T02:05:20.579Z,1.40
2018-08-11T02:07:48.325Z,1.40
2018-08-11T02:10:18.376Z,1.63
2018-08-11T02:12:46.524Z,1.40
2018-08-11T02:15:14.608Z,1.50
2018-08-11T02:17:42.273Z,1.40
2018-08-11T02:20:12.751Z,1.10
2018-08-11T02:22:41.699Z,1.27
2018-08-11T02:25:09.760Z,1.30
2018-08-11T02:27:37.720Z,1.20
2018-08-11T02:30:09.320Z,1.30
2018-08-11T02:32:37.339Z,1.70
2018-08-11T02:35:06.113Z,2.33
2018-08-11T02:37:33.733Z,2.00
2018-08-11T02:40:01.342Z,1.85
2018-08-11T02:42:28.948Z,1.67
2018-08-11T02:44:56.567Z,1.43
2018-08-11T02:47:24.196Z,1.30
2018-08-11T02:49:51.796Z,1.37
2018-08-11T02:52:19.441Z,1.10
2018-08-11T02:54:47.058Z,1.20
2018-08-11T02:57:14.708Z,1.70
2018-08-11T02:59:42.406Z,1.33
2018-08-11T03:02:10.029Z,1.87
2018-08-11T03:04:37.662Z,1.30
2018-08-11T03:07:06.788Z,2.20
2018-08-11T03:09:34.408Z,1.40
2018-08-11T03:12:02.086Z,2.20
2018-08-11T03:14:29.719Z,1.57
2018-08-11T03:16:57.330Z,1.70
2018-08-11T03:19:25.092Z,1.77
2018-08-11T03:21:53.061Z,1.50
2018-08-11T03:24:20.686Z,1.33
2018-08-11T03:26:48.314Z,1.80
2018-08-11T03:29:15.981Z,1.50
2018-08-11T03:31:43.561Z,1.60
2018-08-11T03:34:11.152Z,1.40
2018-08-11T03:36:38.781Z,1.53
2018-08-11T03:39:08.948Z,1.32
2018-08-11T03:41:36.489Z,1.13
2018-08-11T03:44:04.349Z,1.20
2018-08-11T03:46:31.958Z,1.50
2018-08-11T03:48:59.513Z,1.60
2018-08-11T03:51:27.131Z,1.40
2018-08-11T03:53:55.227Z,1.57
2018-08-11T03:56:22.847Z,1.10
2018-08-11T03:58:50.412Z,1.50
2018-08-11T04:01:18.006Z,1.30
2018-08-11T04:03:45.799Z,1.60
2018-08-11T04:06:13.423Z,0.87
2018-08-11T04:08:41.026Z,1.40
2018-08-11T04:11:08.638Z,1.70
2018-08-11T04:13:36.276Z,1.30
2018-08-11T04:16:03.878Z,1.55
2018-08-11T04:18:31.486Z,1.20
2018-08-11T04:20:59.091Z,1.27
2018-08-11T04:23:26.693Z,1.20
2018-08-11T04:25:54.355Z,1.22
2018-08-11T04:28:22.036Z,1.57
2018-08-11T04:30:49.637Z,1.13
2018-08-11T04:33:17.320Z,1.43
2018-08-11T04:35:44.955Z,1.87
2018-08-11T04:38:12.497Z,1.10
2018-08-11T04:40:40.073Z,1.10
2018-08-11T04:43:07.663Z,1.42
2018-08-11T04:45:35.309Z,1.10
2018-08-11T04:48:03.267Z,1.20
2018-08-11T04:50:30.943Z,1.67
2018-08-11T04:52:58.566Z,1.20
2018-08-11T04:55:26.152Z,1.70
2018-08-11T04:57:53.805Z,1.25
2018-08-11T05:00:21.385Z,1.33
2018-08-11T05:02:48.965Z,1.40
2018-08-11T05:05:16.590Z,1.30
2018-08-11T05:07:44.208Z,1.20
2018-08-11T05:10:11.867Z,1.17
2018-08-11T05:12:39.496Z,1.50
2018-08-11T05:15:07.799Z,1.40
2018-08-11T05:17:35.490Z,1.10
2018-08-11T05:20:03.133Z,0.87
2018-08-11T05:22:30.722Z,1.98
2018-08-11T05:24:58.322Z,1.10
2018-08-11T05:27:26.086Z,1.20
2018-08-11T05:29:53.932Z,1.10
2018-08-11T05:32:21.504Z,1.23
2018-08-11T05:34:49.172Z,1.00
2018-08-11T05:37:16.769Z,1.10
2018-08-11T05:39:44.318Z,1.30
2018-08-11T05:42:11.952Z,1.00
2018-08-11T05:44:39.563Z,1.00
2018-08-11T05:47:07.206Z,1.10
2018-08-11T05:49:34.939Z,0.90
2018-08-11T05:52:02.575Z,0.80
2018-08-11T05:54:30.153Z,0.97
2018-08-11T05:56:57.787Z,1.33
2018-08-11T05:59:25.461Z,0.80
2018-08-11T06:01:53.085Z,1.22
2018-08-11T06:04:20.707Z,1.50
2018-08-11T06:06:48.289Z,1.03
2018-08-11T06:09:15.932Z,1.00
2018-08-11T06:11:43.605Z,2.45
2018-08-11T06:14:11.198Z,1.60
2018-08-11T06:16:38.814Z,1.62
2018-08-11T06:19:06.465Z,1.70
2018-08-11T06:21:34.050Z,1.60
2018-08-11T06:24:01.680Z,1.17
2018-08-11T06:26:29.302Z,1.40
2018-08-11T06:28:56.870Z,1.32
2018-08-11T06:31:24.531Z,1.00
2018-08-11T06:33:52.206Z,1.30
2018-08-11T06:36:19.874Z,1.00
2018-08-11T06:38:47.453Z,1.90
2018-08-11T06:41:15.090Z,1.50
2018-08-11T06:43:42.673Z,1.80
2018-08-11T06:46:10.311Z,1.20
2018-08-11T06:48:37.977Z,2.07
2018-08-11T06:51:05.849Z,2.70
2018-08-11T06:53:33.461Z,1.67
2018-08-11T06:56:01.073Z,1.50
2018-08-11T06:58:28.672Z,1.60
2018-08-11T07:00:56.325Z,0.90
2018-08-11T07:03:23.885Z,1.57
2018-08-11T07:05:51.479Z,1.50
2018-08-11T07:08:19.105Z,1.60
2018-08-11T07:10:46.695Z,1.57
2018-08-11T07:13:14.372Z,1.65
2018-08-11T07:15:41.965Z,1.85
2018-08-11T07:18:09.481Z,1.40
2018-08-11T07:20:37.071Z,1.10
2018-08-11T07:23:04.636Z,1.30
2018-08-11T07:25:32.206Z,1.47
2018-08-11T07:27:59.774Z,1.50
2018-08-11T07:30:27.375Z,1.22
2018-08-11T07:32:54.986Z,1.30
2018-08-11T07:35:22.605Z,1.27
2018-08-11T07:37:50.216Z,1.52
2018-08-11T07:40:17.822Z,1.20
2018-08-11T07:42:45.621Z,1.00
2018-08-11T07:45:13.308Z,1.03
2018-08-11T07:47:41.068Z,1.12
2018-08-11T07:50:08.730Z,1.25
2018-08-11T07:52:36.330Z,0.90
2018-08-11T07:55:03.992Z,0.73
2018-08-11T07:57:31.645Z,0.93
2018-08-11T07:59:59.481Z,0.70
2018-08-11T08:02:27.140Z,0.80
2018-08-11T08:04:54.731Z,0.80
2018-08-11T08:07:22.361Z,0.85
2018-08-11T08:09:49.967Z,0.80
2018-08-11T08:12:17.573Z,0.70
2018-08-11T08:14:45.203Z,0.68
2018-08-11T08:17:12.781Z,0.70
2018-08-11T08:19:40.642Z,0.80
2018-08-11T08:22:08.300Z,0.90
2018-08-11T08:24:36.009Z,0.93
2018-08-11T08:27:03.721Z,1.50
2018-08-11T08:29:31.387Z,0.93
2018-08-11T08:31:59.025Z,1.27
2018-08-11T08:34:26.711Z,1.37
2018-08-11T08:36:54.311Z,1.22
2018-08-11T08:39:21.896Z,1.10
2018-08-11T08:41:49.683Z,1.17
2018-08-11T08:44:17.292Z,1.00
2018-08-11T08:46:45.039Z,1.00
2018-08-11T08:49:12.740Z,0.88
2018-08-11T08:51:40.439Z,0.80
2018-08-11T08:54:08.159Z,0.80
2018-08-11T08:56:35.882Z,0.90
2018-08-11T08:59:03.740Z,0.97
2018-08-11T09:01:31.585Z,0.70
2018-08-11T09:03:59.235Z,1.00
2018-08-11T09:06:26.849Z,0.60
2018-08-11T09:08:54.548Z,0.80
2018-08-11T09:11:22.246Z,0.80
2018-08-11T09:13:49.938Z,0.68
2018-08-11T09:16:17.526Z,0.80
2018-08-11T09:18:45.088Z,1.07
2018-08-11T09:21:12.693Z,0.90
2018-08-11T09:23:40.343Z,0.88
2018-08-11T09:26:08.143Z,0.70
2018-08-11T09:28:35.764Z,1.00
2018-08-11T09:31:03.388Z,0.90
2018-08-11T09:33:31.158Z,0.70
2018-08-11T09:35:58.845Z,0.90
2018-08-11T09:38:26.481Z,0.75
2018-08-11T09:40:54.174Z,0.97
2018-08-11T09:43:21.877Z,0.90
2018-08-11T09:45:49.642Z,0.72
2018-08-11T09:48:17.171Z,0.80
2018-08-11T09:50:44.827Z,0.80
2018-08-11T09:53:12.546Z,0.90
2018-08-11T09:55:40.152Z,0.80
2018-08-11T09:58:08.483Z,0.80
2018-08-11T10:00:41.743Z,0.80
2018-08-11T10:03:09.327Z,0.93
2018-08-11T10:05:37.237Z,0.80
2018-08-11T10:08:04.906Z,0.80
2018-08-11T10:10:32.658Z,1.50
2018-08-11T10:13:00.604Z,0.70
2018-08-11T10:15:28.378Z,1.15
2018-08-11T10:17:56.078Z,1.00
2018-08-11T10:20:23.765Z,1.00
2018-08-11T10:22:52.019Z,0.80
2018-08-11T10:25:19.683Z,0.80
2018-08-11T10:27:47.346Z,0.93
2018-08-11T10:30:14.955Z,0.80
2018-08-11T10:32:42.616Z,1.07
2018-08-11T10:35:10.284Z,0.90
2018-08-11T10:37:37.959Z,0.67
2018-08-11T10:40:06.165Z,0.97
2018-08-11T10:42:33.750Z,0.88
2018-08-11T10:45:01.357Z,1.20
2018-08-11T10:47:28.981Z,0.83
2018-08-11T10:49:56.778Z,0.80
2018-08-11T10:52:24.393Z,0.88
2018-08-11T10:54:52.007Z,0.90
2018-08-11T10:57:19.705Z,0.75
2018-08-11T10:59:47.429Z,0.90
2018-08-11T11:02:15.064Z,0.90
2018-08-11T11:04:43.287Z,1.00
2018-08-11T11:07:11.229Z,1.05
2018-08-11T11:09:38.845Z,1.02
2018-08-11T11:12:06.729Z,1.07
2018-08-11T11:14:34.528Z,0.90
2018-08-11T11:17:02.163Z,0.87
2018-08-11T11:19:29.897Z,0.97
2018-08-11T11:21:57.533Z,0.80
2018-08-11T11:24:25.164Z,0.90
2018-08-11T11:26:52.785Z,1.10
2018-08-11T11:29:20.447Z,1.00
2018-08-11T11:31:48.804Z,0.90
2018-08-11T11:34:16.412Z,0.80
2018-08-11T11:36:44.019Z,0.90
2018-08-11T11:39:11.614Z,0.90
2018-08-11T11:41:39.270Z,0.80
2018-08-11T11:44:07.594Z,1.00
2018-08-11T11:46:35.562Z,0.80
2018-08-11T11:49:03.377Z,0.90
2018-08-11T11:51:31.032Z,0.90
2018-08-11T11:53:59.074Z,1.10
2018-08-11T11:56:26.748Z,0.90
2018-08-11T11:58:54.557Z,1.00
2018-08-11T12:01:22.364Z,1.17
2018-08-11T12:03:50.116Z,0.80
2018-08-11T12:06:17.921Z,0.83
2018-08-11T12:08:45.613Z,0.90
2018-08-11T12:11:13.328Z,0.80
2018-08-11T12:13:41.050Z,0.90
2018-08-11T12:16:08.845Z,1.15
2018-08-11T12:18:36.495Z,0.80
2018-08-11T12:21:04.201Z,0.70
2018-08-11T12:23:31.782Z,0.80
2018-08-11T12:25:59.769Z,1.00
2018-08-11T12:28:28.111Z,0.80
2018-08-11T12:30:55.749Z,0.90
2018-08-11T12:33:23.443Z,0.90
2018-08-11T12:35:51.231Z,0.95
2018-08-11T12:38:18.909Z,0.90
2018-08-11T12:40:46.472Z,0.80
2018-08-11T12:43:14.119Z,0.72
2018-08-11T12:45:41.701Z,0.70
2018-08-11T12:48:09.265Z,0.80
2018-08-11T12:50:37.597Z,1.03
2018-08-11T12:53:05.233Z,0.90
2018-08-11T12:55:32.948Z,0.90
2018-08-11T12:58:00.635Z,0.90
2018-08-11T13:00:28.251Z,1.22
2018-08-11T13:02:55.979Z,0.70
2018-08-11T13:05:23.631Z,0.98
2018-08-11T13:07:51.494Z,1.00
2018-08-11T13:10:19.188Z,0.98
2018-08-11T13:12:46.957Z,0.87
2018-08-11T13:15:14.707Z,1.03
2018-08-11T13:17:42.362Z,0.90
2018-08-11T13:20:09.999Z,1.20
2018-08-11T13:22:37.750Z,0.87
2018-08-11T13:25:05.572Z,1.20
2018-08-11T13:27:33.246Z,1.30
2018-08-11T13:30:01.082Z,0.90
2018-08-11T13:32:28.813Z,1.20
2018-08-11T13:34:56.493Z,1.12
2018-08-11T13:37:24.125Z,1.30
2018-08-11T13:39:52.164Z,1.20
2018-08-11T13:42:20.476Z,1.23
2018-08-11T13:44:48.256Z,1.00
2018-08-11T13:47:16.697Z,0.93
2018-08-11T13:49:44.417Z,1.10
2018-08-11T13:52:12.149Z,1.10
2018-08-11T13:54:39.802Z,1.00
2018-08-11T13:57:07.625Z,1.10
2018-08-11T13:59:35.301Z,1.10
2018-08-11T14:02:03.242Z,0.90
2018-08-11T14:04:31.985Z,1.17
2018-08-11T14:06:59.999Z,0.83
2018-08-11T14:09:27.744Z,0.90
2018-08-11T14:11:55.457Z,0.98
2018-08-11T14:14:23.167Z,2.35
2018-08-11T14:16:50.789Z,1.00
2018-08-11T14:19:18.583Z,0.90
2018-08-11T14:21:46.177Z,0.80
2018-08-11T14:24:13.833Z,1.10
2018-08-11T14:26:41.455Z,0.90
2018-08-11T14:29:09.004Z,0.97
2018-08-11T14:31:36.652Z,0.90
2018-08-11T14:34:04.277Z,1.00
2018-08-11T14:36:31.864Z,0.93
2018-08-11T14:38:59.578Z,1.17
2018-08-11T14:41:27.194Z,0.90
2018-08-11T14:43:54.878Z,1.00
2018-08-11T14:46:22.502Z,0.90
2018-08-11T14:48:50.068Z,0.90
2018-08-11T14:51:17.686Z,0.90
2018-08-11T14:53:45.277Z,0.80
2018-08-11T14:56:12.934Z,0.80
2018-08-11T14:58:40.700Z,0.80
2018-08-11T15:01:09.237Z,0.95
2018-08-11T15:03:37.834Z,1.10
2018-08-11T15:06:05.424Z,0.90
2018-08-11T15:08:33.027Z,0.93
2018-08-11T15:11:00.612Z,0.87
2018-08-11T15:13:28.293Z,0.80
2018-08-11T15:15:56.048Z,0.77
2018-08-11T15:18:23.782Z,0.90
2018-08-11T15:20:51.375Z,0.80
2018-08-11T15:23:18.934Z,1.20
2018-08-11T15:25:46.619Z,0.93
2018-08-11T15:28:14.265Z,1.00
2018-08-11T15:30:41.972Z,1.00
2018-08-11T15:33:10.162Z,1.20
2018-08-11T15:35:37.805Z,1.00
2018-08-11T15:38:05.437Z,0.75
2018-08-11T15:40:33.181Z,2.30
2018-08-11T15:43:00.774Z,1.10
2018-08-11T15:45:28.387Z,1.03
2018-08-11T15:47:56.009Z,0.80
2018-08-11T15:50:23.617Z,1.43
2018-08-11T15:52:51.191Z,1.43
2018-08-11T15:55:18.811Z,1.07
2018-08-11T15:57:46.357Z,1.20
2018-08-11T16:00:13.982Z,0.80
2018-08-11T16:02:41.510Z,0.90
2018-08-11T16:05:09.856Z,0.90
2018-08-11T16:07:37.504Z,1.10
2018-08-11T16:10:05.721Z,1.00
2018-08-11T16:12:33.298Z,1.00
2018-08-11T16:15:00.901Z,0.80
2018-08-11T16:17:28.614Z,1.60
2018-08-11T16:19:56.230Z,1.00
2018-08-11T16:22:23.968Z,3.27
2018-08-11T16:24:51.724Z,1.37
2018-08-11T16:27:19.322Z,2.70
2018-08-11T16:29:47.470Z,1.30
2018-08-11T16:32:15.104Z,1.40
2018-08-11T16:34:42.615Z,1.60
2018-08-11T16:37:10.341Z,1.20
2018-08-11T16:39:38.038Z,1.07
2018-08-11T16:42:05.692Z,1.40
2018-08-11T16:44:33.364Z,1.98
2018-08-11T16:47:00.894Z,1.30
2018-08-11T16:49:28.605Z,1.50
2018-08-11T16:51:56.227Z,1.40
2018-08-11T16:54:23.825Z,1.47
2018-08-11T16:56:51.422Z,1.10
2018-08-11T16:59:19.042Z,1.20
2018-08-11T17:01:46.658Z,0.97
2018-08-11T17:04:14.399Z,0.83
2018-08-11T17:06:42.162Z,1.00
2018-08-11T17:09:10.953Z,1.45
2018-08-11T17:11:38.575Z,1.57
2018-08-11T17:14:07.023Z,2.30
2018-08-11T17:16:34.953Z,1.60
2018-08-11T17:19:03.362Z,1.50
2018-08-11T17:21:30.954Z,1.50
2018-08-11T17:23:58.768Z,2.20
2018-08-11T17:26:26.352Z,1.60
2018-08-11T17:28:53.978Z,1.83
2018-08-11T17:31:21.602Z,1.50
2018-08-11T17:33:49.205Z,1.72
2018-08-11T17:36:16.994Z,1.57
2018-08-11T17:38:44.694Z,1.23
2018-08-11T17:41:12.262Z,1.40
2018-08-11T17:43:39.802Z,1.27
2018-08-11T17:46:07.473Z,1.90
2018-08-11T17:48:35.111Z,1.92
2018-08-11T17:51:02.765Z,1.82
2018-08-11T17:53:30.346Z,1.37
2018-08-11T17:55:57.986Z,1.60
2018-08-11T17:58:25.605Z,1.40
2018-08-11T18:00:53.170Z,1.43
2018-08-11T18:03:20.803Z,1.57
2018-08-11T18:05:48.449Z,1.20
2018-08-11T18:08:16.005Z,1.00
2018-08-11T18:10:43.695Z,1.00
2018-08-11T18:13:11.333Z,1.63
2018-08-11T18:15:38.994Z,1.40
2018-08-11T18:18:06.898Z,1.83
2018-08-11T18:20:34.505Z,1.63
2018-08-11T18:23:02.121Z,2.00
2018-08-11T18:25:29.786Z,2.33
2018-08-11T18:27:57.454Z,2.00
2018-08-11T18:30:25.060Z,1.87
2018-08-11T18:32:53.061Z,2.60
2018-08-11T18:35:20.655Z,2.60
2018-08-11T18:37:48.276Z,1.45
2018-08-11T18:40:15.902Z,2.10
2018-08-11T18:42:43.570Z,1.47
2018-08-11T18:45:11.200Z,2.00
2018-08-11T18:47:38.866Z,1.55
2018-08-11T18:50:06.478Z,2.27
2018-08-11T18:52:34.053Z,2.40
2018-08-11T18:55:01.731Z,1.70
2018-08-11T18:57:30.277Z,1.57
2018-08-11T18:59:57.917Z,2.42
2018-08-11T19:02:25.779Z,2.37
2018-08-11T19:04:53.371Z,2.40
2018-08-11T19:07:21.015Z,2.80
2018-08-11T19:09:48.645Z,2.93
2018-08-11T19:12:16.328Z,2.92
2018-08-11T19:14:44.046Z,2.67
2018-08-11T19:17:11.759Z,2.40
2018-08-11T19:19:39.425Z,2.50
2018-08-11T19:22:07.102Z,2.83
2018-08-11T19:24:34.732Z,2.40
2018-08-11T19:27:03.221Z,2.40
2018-08-11T19:29:30.864Z,2.10
2018-08-11T19:31:58.442Z,2.22
2018-08-11T19:34:26.026Z,6.40
2018-08-11T19:36:53.635Z,1.97
2018-08-11T19:39:21.292Z,1.90
2018-08-11T19:41:49.466Z,1.67
2018-08-11T19:44:17.071Z,2.25
2018-08-11T19:46:44.706Z,2.20
2018-08-11T19:49:12.284Z,2.20
2018-08-11T19:51:39.903Z,2.07
2018-08-11T19:54:07.502Z,2.35
2018-08-11T19:56:36.012Z,2.27
2018-08-11T19:59:04.794Z,2.83
2018-08-11T20:01:32.498Z,2.83
2018-08-11T20:04:00.130Z,2.17
2018-08-11T20:06:27.722Z,1.98
2018-08-11T20:08:55.377Z,2.13
2018-08-11T20:11:23.018Z,2.03
2018-08-11T20:13:50.722Z,1.55
2018-08-11T20:16:18.336Z,1.77
2018-08-11T20:18:45.937Z,2.07
2018-08-11T20:21:13.509Z,1.63
2018-08-11T20:23:41.131Z,2.00
2018-08-11T20:26:08.726Z,1.70
2018-08-11T20:28:36.683Z,1.50
2018-08-11T20:31:04.356Z,1.92
2018-08-11T20:33:32.629Z,2.00
2018-08-11T20:36:00.213Z,1.60
2018-08-11T20:38:28.294Z,2.45
2018-08-11T20:40:55.894Z,1.98
2018-08-11T20:43:23.578Z,1.90
2018-08-11T20:45:51.355Z,2.87
2018-08-11T20:48:19.012Z,2.73
2018-08-11T20:50:46.716Z,3.27
2018-08-11T20:53:14.475Z,2.95
2018-08-11T20:55:42.167Z,2.47
2018-08-11T20:58:09.857Z,2.30
2018-08-11T21:00:38.157Z,1.83
2018-08-11T21:03:08.609Z,2.30
2018-08-11T21:05:36.946Z,2.20
2018-08-11T21:08:05.249Z,2.53
2018-08-11T21:10:32.841Z,2.03
2018-08-11T21:13:00.500Z,1.75
2018-08-11T21:15:28.122Z,2.10
2018-08-11T21:17:55.723Z,2.87
2018-08-11T21:20:23.458Z,2.30
2018-08-11T21:22:51.099Z,2.08
2018-08-11T21:25:18.817Z,1.93
2018-08-11T21:27:46.464Z,2.33
2018-08-11T21:30:14.636Z,3.07
2018-08-11T21:32:42.462Z,2.13
2018-08-11T21:35:10.863Z,2.90
2018-08-11T21:37:38.541Z,3.30
2018-08-11T21:40:09.956Z,3.50
2018-08-11T21:42:38.232Z,2.67
2018-08-11T21:45:06.484Z,2.90
2018-08-11T21:47:34.076Z,2.83
2018-08-11T21:50:01.671Z,2.62
2018-08-11T21:52:29.338Z,2.90
2018-08-11T21:54:56.933Z,2.97
2018-08-11T21:57:24.540Z,2.60
2018-08-11T21:59:52.398Z,2.40
2018-08-11T22:02:20.580Z,2.30
2018-08-11T22:04:48.202Z,2.00
2018-08-11T22:07:15.843Z,2.00
2018-08-11T22:09:43.502Z,2.73
2018-08-11T22:12:11.140Z,2.30
2018-08-11T22:14:38.903Z,2.47
2018-08-11T22:17:06.484Z,1.82
2018-08-11T22:19:34.080Z,2.63
2018-08-11T22:22:01.702Z,2.75
2018-08-11T22:24:29.327Z,2.87
2018-08-11T22:26:56.881Z,2.30
2018-08-11T22:29:24.507Z,2.12
2018-08-11T22:31:52.113Z,1.70
2018-08-11T22:34:19.674Z,1.90
2018-08-11T22:36:47.341Z,1.90
2018-08-11T22:39:15.603Z,2.20
2018-08-11T22:41:43.216Z,2.47
2018-08-11T22:44:11.387Z,1.47
2018-08-11T22:46:38.978Z,2.10
2018-08-11T22:49:06.589Z,1.72
2018-08-11T22:51:34.251Z,1.87
2018-08-11T22:54:01.873Z,1.90
2018-08-11T22:56:29.530Z,2.10
2018-08-11T22:58:57.101Z,2.00
2018-08-11T23:01:26.251Z,1.90
2018-08-11T23:03:54.032Z,1.92
2018-08-11T23:06:21.713Z,2.10
2018-08-11T23:08:49.319Z,1.90
2018-08-11T23:11:17.008Z,1.40
2018-08-11T23:13:44.608Z,1.82
2018-08-11T23:16:12.264Z,2.00
2018-08-11T23:18:39.873Z,1.73
2018-08-11T23:21:07.611Z,1.47
2018-08-11T23:23:35.264Z,1.87
2018-08-11T23:26:02.852Z,1.73
2018-08-11T23:28:30.475Z,1.92
2018-08-11T23:30:58.007Z,2.53
2018-08-11T23:33:25.614Z,1.57
2018-08-11T23:35:53.179Z,1.47
2018-08-11T23:38:20.709Z,1.83
2018-08-11T23:40:48.282Z,2.17
2018-08-11T23:43:15.886Z,1.50
2018-08-11T23:45:43.489Z,1.70
2018-08-11T23:48:11.079Z,2.08
2018-08-11T23:50:38.635Z,1.87
2018-08-11T23:53:06.197Z,1.80
2018-08-11T23:55:33.809Z,1.40
2018-08-11T23:58:01.369Z,1.63
